Main page
METAR-TAF:

METAR-TAF

Airports :

London Biggin Hill Airport

London Biggin Hill, England

latitude: 51-19N, longitude: 000-02E, elevation: 183 m

Current weather observation

The report was made 26 minutes ago, at 18:50 UTC
Wind 7 kt from the East/Northeast, varying between Northeast and East/Southeast
Temperature 14°C
Humidity 67%
Pressure 1022 hPa
Visibility 10 km or more
no clouds below 1500 m and no cumulonimbus

METAR: EGKB 191850Z 07007KT 040V110 CAVOK 14/08 Q1022

Time: 20:16 (19:16 UTC)

Forecast

The report was made 2 hours and 20 minutes ago, at 16:56 UTC
Forecast valid from 19 at 18 UTC to 19 at 22 UTC
Wind 9 kt from the East
Visibility 10 km or more
Few clouds at a height of 3500 ft

TAF: EGKB 191656Z 1918/1922 08009KT 9999 FEW035

Weather observations and forecasts of more than 4000 airports (METAR and TAF reports).

The available stations are represented by yellow and red dots on the map.

Hover mouse over dot to see the name of the station.

Then click to see weather observations and forecasts.

To change the map : click on the green buttons with a black cross to zoom in, on the green button with a dash to zoom out, or on the green arrows for adjacent maps.


METAR-TAF: